Time;durP1;ratioP1;P1;durP2;ratioP2;P2;SDS_P1;SDS_P2;PMS_P1;PMS_P2;Temp;Humidity;BMP_temperature;BMP_pressure;BME280_temperature;BME280_humidity;BME280_pressure;Samples;Min_cycle;Max_cycle;Signal;HPM_P1;HPM_P2
2023/07/07 00:00:13;;;;;;;6.47;2.38;;;;;;;18.03;100.00;100018.38;6302988;28;20048;-71
2023/07/07 00:03:13;;;;;;;4.68;2.58;;;;;;;18.06;100.00;100020.75;6302658;28;20048;-71
2023/07/07 00:06:14;;;;;;;3.20;2.20;;;;;;;18.05;100.00;100011.97;6303056;28;20140;-71
2023/07/07 00:09:18;;;;;;;3.63;2.50;;;;;;;18.13;100.00;100016.56;6302915;28;20127;-71
2023/07/07 00:12:18;;;;;;;5.43;2.25;;;;;;;18.01;100.00;100010.59;6320892;28;20487;-71
2023/07/07 00:15:21;;;;;;;3.10;1.85;;;;;;;18.13;100.00;100017.38;6319218;28;20051;-68
2023/07/07 00:18:26;;;;;;;4.38;2.35;;;;;;;18.03;100.00;100006.00;6302515;28;20131;-71
2023/07/07 00:21:26;;;;;;;4.82;2.47;;;;;;;18.12;100.00;100009.63;6320596;28;20056;-71
2023/07/07 00:24:30;;;;;;;3.65;2.47;;;;;;;18.04;100.00;100007.69;6302679;28;20051;-68
2023/07/07 00:27:31;;;;;;;5.05;2.38;;;;;;;18.23;100.00;100006.81;6320462;28;20488;-68
2023/07/07 00:30:31;;;;;;;3.97;2.40;;;;;;;18.24;100.00;100007.63;6302801;28;20040;-71
2023/07/07 00:33:32;;;;;;;3.85;2.33;;;;;;;18.13;100.00;100011.28;6302303;28;20059;-68
2023/07/07 00:36:33;;;;;;;3.55;2.20;;;;;;;18.22;100.00;100010.44;6303889;28;20520;-69
2023/07/07 00:39:34;;;;;;;6.85;2.28;;;;;;;18.08;100.00;100011.72;6307085;28;20040;-68
2023/07/07 00:42:35;;;;;;;6.45;2.13;;;;;;;18.20;100.00;100027.38;6306700;28;20055;-71
2023/07/07 00:45:38;;;;;;;4.03;2.03;;;;;;;18.18;99.62;100022.25;6307149;28;20052;-68
2023/07/07 00:48:44;;;;;;;3.83;2.30;;;;;;;18.05;98.94;100021.72;6306776;28;20055;-69
2023/07/07 00:51:50;;;;;;;2.75;1.83;;;;;;;17.98;100.00;100029.38;6306470;28;20487;-71
2023/07/07 00:54:54;;;;;;;5.07;2.55;;;;;;;18.09;100.00;100025.75;6324737;28;20401;-72
2023/07/07 00:57:55;;;;;;;3.25;1.85;;;;;;;18.23;100.00;100024.47;6324864;28;20052;-71
2023/07/07 01:01:01;;;;;;;2.63;1.83;;;;;;;18.07;100.00;100033.78;6306551;28;20044;-69
2023/07/07 01:04:07;;;;;;;5.45;2.13;;;;;;;18.04;100.00;100023.53;6324154;28;20127;-69
2023/07/07 01:07:28;;;;;;;3.17;2.10;;;;;;;18.12;100.00;100017.56;6306182;28;20056;-68
2023/07/07 01:10:28;;;;;;;4.68;2.15;;;;;;;18.04;100.00;100028.81;6324716;28;20131;-72
2023/07/07 01:13:30;;;;;;;4.15;2.30;;;;;;;18.00;100.00;100022.16;6323240;28;20044;-69
2023/07/07 01:16:42;;;;;;;3.17;2.15;;;;;;;17.95;100.00;100029.66;6306217;28;20043;-69
2023/07/07 01:20:30;;;;;;;3.20;1.85;;;;;;;17.99;100.00;100033.69;6306129;28;20070;-68
2023/07/07 01:24:10;;;;;;;5.75;2.15;;;;;;;17.99;100.00;100023.13;6265257;28;20045;-72
2023/07/07 01:27:45;;;;;;;4.43;2.40;;;;;;;18.00;100.00;100024.78;6281369;28;20052;-72
2023/07/07 01:30:51;;;;;;;3.05;2.00;;;;;;;18.14;100.00;100026.16;6297515;28;20404;-72
2023/07/07 01:33:52;;;;;;;3.53;2.25;;;;;;;17.95;100.00;100023.53;6305858;28;20083;-72
2023/07/07 01:36:52;;;;;;;9.55;2.50;;;;;;;18.04;100.00;100025.34;6305697;28;20052;-71
2023/07/07 01:39:57;;;;;;;4.35;2.28;;;;;;;17.98;100.00;100021.47;6323510;28;20048;-69
2023/07/07 01:43:03;;;;;;;5.78;2.30;;;;;;;18.07;100.00;100019.78;6305162;28;20063;-69
2023/07/07 01:46:15;;;;;;;6.70;2.45;;;;;;;18.09;100.00;100025.75;6323836;28;20048;-69
2023/07/07 01:49:32;;;;;;;5.22;2.35;;;;;;;18.08;100.00;100017.00;6304986;28;20037;-68
2023/07/07 01:52:52;;;;;;;4.90;2.33;;;;;;;18.07;100.00;100019.78;6305191;28;20438;-71
2023/07/07 01:55:58;;;;;;;4.13;2.30;;;;;;;18.08;100.00;100032.00;6323094;28;20613;-69
2023/07/07 01:59:00;;;;;;;3.40;2.35;;;;;;;18.00;100.00;100035.34;6305276;28;20052;-69
2023/07/07 02:02:01;;;;;;;;;;;;;;;18.15;100.00;100037.56;6305455;28;20048;-72
2023/07/07 02:05:01;;;;;;;5.63;2.70;;;;;;;18.03;100.00;100034.22;6305012;28;19920;-72
2023/07/07 02:08:03;;;;;;;3.55;1.98;;;;;;;18.09;100.00;100036.31;6322879;28;20513;-69
2023/07/07 02:11:04;;;;;;;6.30;2.70;;;;;;;17.98;100.00;100039.13;6304807;28;20095;-69
2023/07/07 02:14:05;;;;;;;9.93;2.90;;;;;;;18.00;100.00;100040.63;6322392;28;20052;-69
2023/07/07 02:17:06;;;;;;;4.90;2.70;;;;;;;18.13;100.00;100037.69;6304880;28;20051;-69
2023/07/07 02:20:08;;;;;;;3.75;2.35;;;;;;;18.28;100.00;100038.06;6304762;28;20059;-72
2023/07/07 02:23:10;;;;;;;4.82;2.58;;;;;;;18.15;100.00;100033.09;6322608;28;20557;-69
2023/07/07 02:26:13;;;;;;;3.28;2.55;;;;;;;17.95;100.00;100034.09;6322215;28;20048;-72
2023/07/07 02:29:14;;;;;;;5.95;2.70;;;;;;;17.93;100.00;100031.59;6304342;28;20565;-72
2023/07/07 02:32:17;;;;;;;3.25;2.45;;;;;;;17.84;100.00;100030.66;6304550;28;20139;-72
2023/07/07 02:35:18;;;;;;;2.92;2.25;;;;;;;17.75;100.00;100031.47;6303745;28;20143;-69
2023/07/07 02:38:18;;;;;;;4.18;2.60;;;;;;;17.98;100.00;100037.31;6322269;28;20052;-69
2023/07/07 02:41:20;;;;;;;6.00;2.40;;;;;;;18.04;100.00;100038.56;6322329;28;20407;-70
2023/07/07 02:44:21;;;;;;;4.60;2.47;;;;;;;17.98;100.00;100044.41;6321725;28;20047;-69
2023/07/07 02:47:22;;;;;;;4.35;2.35;;;;;;;17.88;100.00;100039.94;6321432;28;20058;-69
2023/07/07 02:50:22;;;;;;;6.40;2.85;;;;;;;17.83;100.00;100046.63;6321688;28;20055;-72
2023/07/07 02:53:25;;;;;;;4.18;2.67;;;;;;;18.04;100.00;100046.47;6321954;28;20048;-70
2023/07/07 02:56:26;;;;;;;4.57;2.70;;;;;;;17.81;100.00;100052.03;6321806;28;20139;-70
2023/07/07 02:59:27;;;;;;;5.15;2.70;;;;;;;18.08;100.00;100047.84;6302998;28;20054;-70
2023/07/07 03:02:28;;;;;;;4.88;2.42;;;;;;;17.87;100.00;100043.56;6303655;28;20086;-69
2023/07/07 03:05:31;;;;;;;5.72;3.20;;;;;;;17.89;100.00;100040.78;6321360;28;20093;-69
2023/07/07 03:08:31;;;;;;;5.72;2.88;;;;;;;17.70;100.00;100045.06;6303598;28;20399;-69
2023/07/07 03:11:33;;;;;;;6.45;3.05;;;;;;;17.93;100.00;100044.78;6304969;28;20055;-72
2023/07/07 03:14:36;;;;;;;4.55;2.90;;;;;;;17.67;100.00;100044.53;6322184;28;20487;-72
2023/07/07 03:17:39;;;;;;;4.40;3.08;;;;;;;17.68;100.00;100048.81;6322759;28;20056;-70
2023/07/07 03:20:49;;;;;;;5.43;2.72;;;;;;;17.76;100.00;100054.22;6304323;28;20052;-72
2023/07/07 03:23:51;;;;;;;6.68;2.70;;;;;;;17.70;100.00;100060.91;6321705;28;20047;-72
2023/07/07 03:26:54;;;;;;;5.57;3.28;;;;;;;17.71;100.00;100054.66;6303476;28;20055;-69
2023/07/07 03:29:54;;;;;;;3.88;3.00;;;;;;;17.83;100.00;100063.31;6303744;28;20048;-72
2023/07/07 03:32:55;;;;;;;5.10;3.25;;;;;;;17.81;100.00;100062.59;6321265;28;20048;-69
2023/07/07 03:35:56;;;;;;;4.85;3.22;;;;;;;17.73;100.00;100059.81;6321352;28;20052;-69
2023/07/07 03:38:57;;;;;;;4.15;3.03;;;;;;;17.85;100.00;100056.09;6303174;28;20070;-72
2023/07/07 03:41:58;;;;;;;4.93;2.67;;;;;;;17.91;100.00;100066.06;6303251;28;20048;-72
2023/07/07 03:44:59;;;;;;;4.32;2.65;;;;;;;17.96;100.00;100070.94;6320993;28;20143;-69
2023/07/07 03:48:00;;;;;;;10.30;3.03;;;;;;;18.04;100.00;100059.66;6303188;28;20059;-70
2023/07/07 03:51:02;;;;;;;4.47;2.75;;;;;;;18.15;100.00;100054.22;6320995;28;20293;-72
2023/07/07 03:54:04;;;;;;;5.30;2.90;;;;;;;18.28;100.00;100053.91;6303631;28;20050;-72
2023/07/07 03:57:06;;;;;;;4.47;2.90;;;;;;;18.35;100.00;100056.81;6321082;28;20047;-69
2023/07/07 04:00:07;;;;;;;4.60;2.58;;;;;;;18.35;100.00;100043.63;6320946;28;20044;-69
2023/07/07 04:03:08;;;;;;;5.18;2.72;;;;;;;18.55;100.00;100041.72;6302923;28;20098;-72
2023/07/07 04:06:09;;;;;;;2.70;1.92;;;;;;;18.44;100.00;100046.19;6320561;28;20503;-69
2023/07/07 04:09:10;;;;;;;3.40;2.57;;;;;;;18.60;100.00;100042.94;6320747;28;20047;-72
2023/07/07 04:12:11;;;;;;;5.50;2.40;;;;;;;18.78;100.00;100050.94;6305232;28;20071;-72
2023/07/07 04:15:12;;;;;;;3.58;2.38;;;;;;;18.92;100.00;100055.78;6325523;28;20404;-72
2023/07/07 04:18:15;;;;;;;3.67;2.30;;;;;;;18.88;100.00;100054.41;6307534;28;20044;-72
2023/07/07 04:21:20;;;;;;;3.20;2.38;;;;;;;19.04;100.00;100058.19;6307918;28;20051;-72
2023/07/07 04:24:23;;;;;;;5.10;2.58;;;;;;;18.75;100.00;100053.03;6307691;28;20059;-72
2023/07/07 04:27:24;;;;;;;4.15;2.15;;;;;;;18.87;100.00;100062.47;6307115;28;20715;-72
2023/07/07 04:30:25;;;;;;;2.72;2.28;;;;;;;18.79;100.00;100063.19;6307168;28;20044;-69
2023/07/07 04:33:28;;;;;;;4.47;2.45;;;;;;;19.03;100.00;100067.13;6325179;28;20143;-69
2023/07/07 04:36:28;;;;;;;4.47;2.28;;;;;;;19.05;100.00;100071.28;6325085;28;20059;-70
2023/07/07 04:39:31;;;;;;;3.75;2.20;;;;;;;19.07;100.00;100077.25;6324966;28;20040;-72
2023/07/07 04:42:32;;;;;;;7.13;2.35;;;;;;;19.10;100.00;100082.22;6306953;28;20048;-72
2023/07/07 04:45:33;;;;;;;3.20;1.90;;;;;;;19.06;100.00;100096.72;6307092;28;20109;-70
2023/07/07 04:48:37;;;;;;;3.65;2.50;;;;;;;19.15;99.16;100083.59;6301383;28;20127;-72
2023/07/07 04:51:42;;;;;;;6.22;1.90;;;;;;;19.29;98.42;100096.31;6294435;28;20049;-72
2023/07/07 04:54:42;;;;;;;3.55;2.22;;;;;;;19.35;98.95;100095.72;6305983;28;20047;-72
2023/07/07 04:57:43;;;;;;;2.65;2.00;;;;;;;19.41;96.96;100094.31;6317373;28;20070;-69
2023/07/07 05:00:45;;;;;;;3.35;2.42;;;;;;;19.37;97.46;100095.59;6324389;28;20062;-69
2023/07/07 05:03:56;;;;;;;4.07;2.40;;;;;;;19.55;96.70;100101.72;6324849;28;20424;-73
2023/07/07 05:06:56;;;;;;;4.72;2.15;;;;;;;19.56;97.08;100098.13;6299739;28;20060;-72
2023/07/07 05:09:57;;;;;;;3.87;2.17;;;;;;;19.57;97.63;100097.13;6323383;28;20102;-72
2023/07/07 05:13:00;;;;;;;4.80;2.40;;;;;;;19.52;96.27;100099.41;6323676;28;20059;-73
2023/07/07 05:16:06;;;;;;;5.68;2.70;;;;;;;19.61;97.09;100105.59;6288405;28;20139;-70
2023/07/07 05:19:07;;;;;;;3.17;1.92;;;;;;;19.59;96.72;100115.50;6301212;28;20059;-69
2023/07/07 05:22:08;;;;;;;3.13;1.97;;;;;;;19.54;96.15;100110.66;6305039;28;20048;-69
2023/07/07 05:25:09;;;;;;;6.77;2.57;;;;;;;19.49;97.15;100112.91;6324238;28;20062;-69
2023/07/07 05:28:10;;;;;;;3.15;2.28;;;;;;;19.36;98.26;100117.75;6323893;28;20075;-69
2023/07/07 05:31:10;;;;;;;3.30;2.10;;;;;;;19.49;97.94;100115.56;6305184;28;20054;-70
2023/07/07 05:34:12;;;;;;;3.70;2.17;;;;;;;19.55;97.04;100116.78;6323472;28;20052;-72
2023/07/07 05:37:12;;;;;;;3.00;2.10;;;;;;;19.51;98.09;100118.88;6297491;28;20052;-72
2023/07/07 05:40:13;;;;;;;2.90;2.28;;;;;;;19.58;97.30;100119.13;6308841;28;20052;-72
2023/07/07 05:43:16;;;;;;;4.68;2.20;;;;;;;19.71;97.02;100124.91;6316022;28;20051;-71
2023/07/07 05:46:20;;;;;;;3.53;2.10;;;;;;;19.73;96.12;100125.59;6313901;28;20513;-71
2023/07/07 05:49:21;;;;;;;4.22;2.33;;;;;;;19.69;95.55;100132.97;6315498;28;20139;-72
2023/07/07 05:52:22;;;;;;;6.23;2.60;;;;;;;19.84;94.65;100135.94;6314682;28;20528;-70
2023/07/07 05:55:28;;;;;;;4.30;2.53;;;;;;;19.83;94.09;100139.59;6293798;28;20049;-72
2023/07/07 05:58:31;;;;;;;6.70;2.20;;;;;;;19.97;92.82;100147.97;6305018;28;20110;-70
2023/07/07 06:01:33;;;;;;;3.45;2.50;;;;;;;20.01;93.14;100147.50;6290055;28;20048;-70
2023/07/07 06:04:34;;;;;;;;;;;;;;;19.82;94.08;100156.44;6300569;28;20052;-70
2023/07/07 06:07:34;;;;;;;7.78;2.70;;;;;;;19.86;94.06;100159.63;6294121;28;19921;-72
2023/07/07 06:10:35;;;;;;;6.63;2.57;;;;;;;19.86;96.18;100159.63;6300170;28;20051;-70
2023/07/07 06:13:36;;;;;;;4.50;2.50;;;;;;;19.95;95.29;100168.47;6307501;28;20044;-70
2023/07/07 06:16:37;;;;;;;9.63;2.77;;;;;;;19.92;95.02;100177.56;6321415;28;20430;-71
2023/07/07 06:19:38;;;;;;;3.03;2.15;;;;;;;19.99;94.75;100169.84;6302670;28;20052;-70
2023/07/07 06:22:39;;;;;;;4.88;2.38;;;;;;;20.17;94.13;100165.34;6321483;28;20069;-72
2023/07/07 06:25:39;;;;;;;5.15;2.42;;;;;;;20.16;95.14;100169.00;6300868;28;20055;-72
2023/07/07 06:28:40;;;;;;;5.43;2.50;;;;;;;20.37;91.54;100173.16;6279625;28;20055;-71
2023/07/07 06:31:41;;;;;;;3.00;2.10;;;;;;;20.17;89.94;100180.44;6301479;28;20044;-71
2023/07/07 06:34:41;;;;;;;4.00;2.37;;;;;;;20.27;90.73;100179.34;6320789;28;20089;-72
2023/07/07 06:37:45;;;;;;;9.43;2.93;;;;;;;20.44;88.86;100177.66;6294655;28;20182;-69
2023/07/07 06:40:50;;;;;;;3.40;2.40;;;;;;;20.81;86.81;100171.31;6290998;28;20044;-69
2023/07/07 06:43:50;;;;;;;2.15;1.95;;;;;;;20.72;85.11;100186.34;6309771;28;20051;-70
2023/07/07 06:46:54;;;;;;;2.93;2.33;;;;;;;20.78;85.18;100190.19;6286765;28;20051;-72
2023/07/07 06:49:55;;;;;;;6.35;2.03;;;;;;;21.00;82.61;100194.13;6299958;28;20040;-70
2023/07/07 07:05:29;;;;;;;5.43;2.15;;;;;;;22.84;72.75;100210.09;6314952;28;20386;-73
2023/07/07 07:08:30;;;;;;;3.63;2.28;;;;;;;22.99;74.44;100205.72;6293714;28;20057;-72
2023/07/07 07:11:33;;;;;;;3.20;2.13;;;;;;;23.20;71.89;100204.34;6300004;28;20167;-73
2023/07/07 07:14:37;;;;;;;3.08;2.00;;;;;;;23.51;70.12;100199.91;6293350;28;20536;-72
2023/07/07 07:17:40;;;;;;;3.45;2.10;;;;;;;23.46;70.27;100201.41;6315745;28;20048;-73
2023/07/07 07:20:41;;;;;;;3.65;2.03;;;;;;;23.30;69.19;100205.81;6308511;28;20044;-73
2023/07/07 07:23:44;;;;;;;4.40;2.07;;;;;;;23.17;69.06;100210.03;6293045;28;20041;-73
2023/07/07 07:26:45;;;;;;;2.67;2.00;;;;;;;23.65;68.01;100216.97;6290782;28;20048;-73
2023/07/07 07:29:48;;;;;;;3.63;2.00;;;;;;;23.53;69.98;100215.69;6291531;28;20498;-72
2023/07/07 07:32:51;;;;;;;3.13;1.90;;;;;;;23.47;67.75;100222.56;6295018;28;20087;-72
2023/07/07 07:35:52;;;;;;;4.65;2.10;;;;;;;23.33;70.05;100229.44;6291080;28;20415;-73
2023/07/07 07:38:53;;;;;;;5.63;2.50;;;;;;;22.67;70.94;100236.72;6294272;28;20048;-73
2023/07/07 07:41:56;;;;;;;2.83;2.20;;;;;;;22.62;70.10;100231.06;6311322;28;20127;-73
2023/07/07 07:45:00;;;;;;;3.63;2.20;;;;;;;22.47;69.96;100236.22;6292129;28;20087;-73
2023/07/07 07:48:00;;;;;;;5.20;2.03;;;;;;;22.65;70.97;100245.84;6280351;28;20053;-72
2023/07/07 07:51:01;;;;;;;4.17;2.00;;;;;;;22.59;70.90;100244.69;6291859;28;20111;-72
2023/07/07 07:54:04;;;;;;;4.60;2.00;;;;;;;22.55;70.42;100248.69;6291404;28;20481;-73
2023/07/07 07:57:06;;;;;;;6.32;2.08;;;;;;;23.17;69.77;100252.63;6300440;28;20098;-73
2023/07/07 08:00:08;;;;;;;3.38;2.17;;;;;;;23.66;68.59;100255.06;6315145;28;20048;-72
2023/07/07 08:03:09;;;;;;;4.00;2.40;;;;;;;24.16;65.21;100255.66;6310251;28;20057;-72
2023/07/07 08:06:10;;;;;;;2.90;2.33;;;;;;;24.67;64.63;100266.63;6289111;28;20137;-73
2023/07/07 08:09:11;;;;;;;4.40;2.50;;;;;;;23.98;64.88;100262.09;6279311;28;20064;-73
2023/07/07 08:12:11;;;;;;;5.73;2.00;;;;;;;23.71;66.29;100258.88;6269267;28;20053;-73
2023/07/07 08:15:15;;;;;;;5.73;2.43;;;;;;;23.82;66.06;100265.66;6267140;28;20147;-73
2023/07/07 08:18:15;;;;;;;3.72;2.05;;;;;;;23.57;67.51;100264.13;6273471;28;20068;-73
2023/07/07 08:21:16;;;;;;;8.17;2.03;;;;;;;23.53;67.43;100272.47;6274019;28;20171;-73
2023/07/07 08:24:17;;;;;;;3.83;2.20;;;;;;;23.81;65.41;100255.22;6274276;28;20072;-73
2023/07/07 08:27:19;;;;;;;5.63;2.30;;;;;;;23.86;68.05;100253.66;6292908;28;21054;-72
2023/07/07 08:30:23;;;;;;;3.75;1.95;;;;;;;24.62;64.39;100264.47;6298422;28;20056;-73
2023/07/07 08:33:23;;;;;;;5.40;1.98;;;;;;;24.61;63.97;100270.03;6298699;28;20068;-73
2023/07/07 08:36:26;;;;;;;3.60;2.07;;;;;;;24.60;63.05;100261.16;6296735;28;20060;-73
2023/07/07 08:39:29;;;;;;;5.20;2.00;;;;;;;24.80;62.22;100264.16;6269549;28;20131;-73
2023/07/07 08:42:36;;;;;;;6.18;2.10;;;;;;;24.19;63.94;100258.78;6265559;28;20547;-73
2023/07/07 08:45:46;;;;;;;3.63;2.08;;;;;;;24.36;65.01;100264.00;6273629;28;20053;-72
2023/07/07 08:48:56;;;;;;;2.25;1.92;;;;;;;24.26;62.50;100258.94;6292526;28;20087;-73
2023/07/07 08:52:09;;;;;;;4.03;2.00;;;;;;;24.48;65.25;100265.25;6276152;28;20045;-72
2023/07/07 08:55:43;;;;;;;4.10;2.03;;;;;;;24.76;63.57;100254.03;6279130;28;20550;-72
2023/07/07 08:58:52;;;;;;;2.53;1.80;;;;;;;24.97;61.43;100254.16;6282532;28;20401;-73
2023/07/07 09:02:15;;;;;;;4.45;1.90;;;;;;;25.05;61.48;100261.25;6295494;28;20076;-70
2023/07/07 09:05:27;;;;;;;2.88;2.00;;;;;;;25.04;60.28;100254.25;6295789;28;20063;-70
2023/07/07 09:08:53;;;;;;;3.83;2.13;;;;;;;25.09;58.41;100251.88;6297234;28;20071;-70
2023/07/07 09:12:24;;;;;;;2.78;2.08;;;;;;;25.48;59.26;100256.94;6293209;28;20098;-71
2023/07/07 09:15:29;;;;;;;6.28;2.30;;;;;;;25.57;59.08;100251.50;6275006;28;20048;-70
2023/07/07 09:18:36;;;;;;;2.83;1.98;;;;;;;25.96;57.43;100263.69;6287191;28;20052;-70
2023/07/07 09:21:59;;;;;;;6.10;1.90;;;;;;;26.02;57.71;100262.94;6277804;28;20060;-72
2023/07/07 09:25:02;;;;;;;5.60;2.50;;;;;;;26.35;57.91;100257.91;6273227;28;20052;-71
2023/07/07 09:28:07;;;;;;;5.00;2.35;;;;;;;25.74;57.79;100258.31;6294733;28;20063;-71
2023/07/07 09:31:31;;;;;;;5.20;2.08;;;;;;;26.31;56.55;100264.66;6296250;28;20511;-70
2023/07/07 09:34:33;;;;;;;3.42;2.30;;;;;;;26.12;55.60;100258.13;6293224;28;20139;-71
2023/07/07 09:38:06;;;;;;;2.88;2.03;;;;;;;26.86;55.63;100260.44;6288671;28;20427;-70
2023/07/07 09:41:24;;;;;;;3.67;1.92;;;;;;;26.64;54.95;100258.81;6294571;28;20556;-71
2023/07/07 09:44:52;;;;;;;3.08;1.80;;;;;;;26.57;55.87;100269.47;6280159;28;20127;-70
2023/07/07 09:47:56;;;;;;;3.70;2.33;;;;;;;27.07;53.75;100267.56;6295776;28;20527;-71
2023/07/07 09:51:24;;;;;;;3.95;2.28;;;;;;;27.24;55.19;100256.56;6296224;28;20056;-71
2023/07/07 09:54:26;;;;;;;2.65;2.00;;;;;;;27.82;54.08;100269.59;6257244;28;20401;-71
2023/07/07 09:57:41;;;;;;;5.10;2.10;;;;;;;27.63;52.31;100260.47;6271411;28;20057;-70
2023/07/07 10:00:46;;;;;;;5.95;1.90;;;;;;;27.05;53.42;100258.91;6269118;28;20057;-71
2023/07/07 10:03:48;;;;;;;5.43;2.17;;;;;;;26.65;54.80;100266.66;6273758;28;20055;-70
2023/07/07 10:06:59;;;;;;;3.38;2.17;;;;;;;26.85;53.44;100265.97;6296785;28;20091;-71
2023/07/07 10:10:05;;;;;;;3.00;2.10;;;;;;;27.49;53.38;100264.97;6291172;28;20057;-71
2023/07/07 10:13:14;;;;;;;2.67;1.70;;;;;;;27.29;52.06;100254.13;6279714;28;20045;-71
2023/07/07 10:16:35;;;;;;;3.90;1.95;;;;;;;26.57;53.59;100255.25;6271659;28;20451;-70
2023/07/07 10:19:44;;;;;;;2.55;1.73;;;;;;;26.36;54.40;100256.06;6271067;28;20049;-71
2023/07/07 10:22:44;;;;;;;5.30;1.70;;;;;;;26.76;51.85;100256.44;6275211;28;20509;-71
2023/07/07 10:25:48;;;;;;;2.23;1.40;;;;;;;27.29;52.20;100246.91;6270845;28;20053;-71
2023/07/07 10:28:48;;;;;;;3.72;1.88;;;;;;;27.90;51.87;100243.47;6282456;28;20293;-70
2023/07/07 10:31:53;;;;;;;2.33;1.60;;;;;;;27.82;52.30;100243.63;6295026;28;20098;-70
2023/07/07 10:34:58;;;;;;;2.92;1.88;;;;;;;27.54;49.43;100238.38;6279543;28;20100;-71
2023/07/07 10:38:05;;;;;;;2.95;1.70;;;;;;;27.69;50.66;100248.94;6270098;28;20053;-71
2023/07/07 10:41:08;;;;;;;2.05;1.75;;;;;;;28.52;50.27;100248.75;6259462;28;20044;-71
2023/07/07 10:44:11;;;;;;;5.15;1.90;;;;;;;28.31;50.10;100239.84;6279992;28;20483;-70
2023/07/07 10:47:20;;;;;;;3.65;1.65;;;;;;;28.77;48.52;100245.44;6270418;28;20049;-71
2023/07/07 10:50:25;;;;;;;2.78;1.88;;;;;;;28.58;50.79;100245.22;6273633;28;20139;-71
2023/07/07 10:54:03;;;;;;;2.28;1.42;;;;;;;27.68;50.31;100244.63;6296262;28;20049;-71
2023/07/07 10:57:33;;;;;;;1.58;1.42;;;;;;;27.85;49.31;100243.22;6267337;28;20045;-72
2023/07/07 11:01:18;;;;;;;2.35;1.67;;;;;;;27.38;53.59;100238.72;6259024;28;20056;-71
2023/07/07 11:04:33;;;;;;;4.50;1.73;;;;;;;27.49;49.82;100235.47;6274045;28;20052;-71
2023/07/07 11:07:58;;;;;;;4.43;2.00;;;;;;;27.13;53.12;100249.88;6282510;28;20055;-71
2023/07/07 11:11:27;;;;;;;3.35;1.88;;;;;;;26.79;52.05;100245.34;6272573;28;20068;-71
2023/07/07 11:14:43;;;;;;;2.40;1.40;;;;;;;26.53;52.31;100244.09;6284400;28;20128;-70
2023/07/07 11:18:11;;;;;;;2.10;1.40;;;;;;;26.33;53.21;100247.41;6289741;28;20049;-70
2023/07/07 11:21:28;;;;;;;2.38;1.80;;;;;;;26.46;54.25;100243.19;6280373;28;20407;-71
2023/07/07 11:24:58;;;;;;;2.08;1.60;;;;;;;26.46;52.90;100243.19;6279902;28;20183;-71
2023/07/07 11:28:36;;;;;;;2.65;1.80;;;;;;;26.47;52.63;100248.34;6271411;28;20061;-71
2023/07/07 11:32:04;;;;;;;2.97;1.67;;;;;;;26.73;52.89;100244.28;6270095;28;20044;-70
2023/07/07 11:35:17;;;;;;;3.67;1.90;;;;;;;26.67;52.74;100239.72;6274353;28;20057;-71
2023/07/07 11:38:26;;;;;;;4.82;1.77;;;;;;;26.49;51.61;100240.16;6292673;28;20052;-71
2023/07/07 11:41:36;;;;;;;5.25;2.00;;;;;;;27.07;52.56;100250.69;6281487;28;20397;-71
2023/07/07 11:45:10;;;;;;;9.70;4.70;;;;;;;27.39;50.49;100241.19;6274971;28;20049;-70
2023/07/07 11:48:24;;;;;;;26.27;13.43;;;;;;;27.93;50.35;100247.59;6274772;28;20053;-71
2023/07/07 11:51:34;;;;;;;24.00;10.38;;;;;;;28.75;47.65;100247.50;6275648;28;20114;-71
2023/07/07 11:55:17;;;;;;;17.02;7.90;;;;;;;28.99;46.20;100244.13;6274480;28;20049;-72
2023/07/07 11:58:43;;;;;;;31.73;14.73;;;;;;;28.60;46.82;100250.38;6258900;28;20051;-70
2023/07/07 12:01:49;;;;;;;6.85;3.75;;;;;;;27.98;47.55;100246.97;6262555;28;20055;-71
2023/07/07 12:04:52;;;;;;;7.78;3.03;;;;;;;27.78;48.25;100245.06;6273315;28;20095;-71
2023/07/07 12:07:59;;;;;;;3.92;2.35;;;;;;;27.88;50.74;100258.09;6274550;28;20052;-70
2023/07/07 12:11:02;;;;;;;16.23;6.90;;;;;;;27.58;49.92;100258.38;6274590;28;20056;-71
2023/07/07 12:14:27;;;;;;;3.17;1.90;;;;;;;27.03;50.55;100258.25;6272890;28;20075;-71
2023/07/07 12:17:36;;;;;;;3.47;2.08;;;;;;;26.92;51.51;100250.78;6274112;28;20060;-71
2023/07/07 12:20:43;;;;;;;4.90;3.17;;;;;;;27.13;52.10;100253.38;6287272;28;20040;-70
2023/07/07 12:24:04;;;;;;;3.20;2.40;;;;;;;27.16;54.52;100257.53;6278619;28;20063;-71
2023/07/07 12:27:13;;;;;;;7.25;2.72;;;;;;;26.83;53.12;100251.94;6269893;28;20385;-70
2023/07/07 12:30:31;;;;;;;4.38;2.47;;;;;;;26.44;50.95;100243.41;6287444;28;20403;-70
2023/07/07 12:33:42;;;;;;;4.57;2.55;;;;;;;26.70;51.49;100244.66;6280678;28;20045;-70
2023/07/07 12:36:45;;;;;;;2.60;1.88;;;;;;;26.39;51.79;100253.03;6255998;28;20443;-71
2023/07/07 12:40:01;;;;;;;5.32;2.20;;;;;;;26.82;51.46;100255.66;6274481;28;20053;-70
2023/07/07 12:43:20;;;;;;;3.55;2.03;;;;;;;27.05;53.76;100250.88;6273176;28;20400;-71
2023/07/07 12:46:30;;;;;;;3.90;1.90;;;;;;;26.37;52.73;100247.03;6297493;28;20052;-72
2023/07/07 12:49:36;;;;;;;3.65;2.15;;;;;;;26.41;51.83;100243.78;6273280;28;20088;-71
2023/07/07 12:52:44;;;;;;;3.92;2.25;;;;;;;26.46;53.02;100244.03;6273078;28;20049;-71
2023/07/07 12:56:07;;;;;;;2.55;2.00;;;;;;;26.33;52.66;100239.38;6273962;28;20056;-70
2023/07/07 12:59:38;;;;;;;4.30;2.25;;;;;;;26.39;54.00;100245.81;6275067;28;20056;-71
2023/07/07 13:02:55;;;;;;;3.00;1.90;;;;;;;26.49;55.68;100250.84;6278327;28;20051;-70
2023/07/07 13:05:57;;;;;;;4.13;2.10;;;;;;;26.31;54.89;100257.47;6287882;28;20056;-70
2023/07/07 13:09:16;;;;;;;2.55;1.90;;;;;;;26.35;55.23;100252.56;6259687;28;20057;-71
2023/07/07 13:12:35;;;;;;;4.32;2.55;;;;;;;27.22;53.15;100269.28;6281989;28;20057;-70
2023/07/07 13:15:36;;;;;;;3.90;2.20;;;;;;;27.42;53.35;100264.91;6274068;28;20099;-71
2023/07/07 13:18:44;;;;;;;3.03;1.95;;;;;;;27.71;51.26;100257.59;6272311;28;20053;-70
2023/07/07 13:21:49;;;;;;;2.38;1.63;;;;;;;27.88;49.35;100266.97;6284598;28;20052;-71
2023/07/07 13:24:49;;;;;;;3.25;2.20;;;;;;;27.31;49.12;100263.63;6282157;28;20086;-71
2023/07/07 13:27:52;;;;;;;3.85;2.08;;;;;;;27.14;48.73;100262.28;6276746;28;20048;-70
2023/07/07 13:30:56;;;;;;;3.15;2.05;;;;;;;27.11;47.82;100268.00;6276332;28;20048;-70
2023/07/07 13:33:56;;;;;;;4.13;2.15;;;;;;;27.64;50.62;100268.31;6275103;28;20504;-70
2023/07/07 13:36:57;;;;;;;2.35;1.73;;;;;;;27.70;49.26;100264.00;6282774;28;20047;-70
2023/07/07 13:39:58;;;;;;;4.00;2.08;;;;;;;27.60;48.30;100267.06;6273669;28;20527;-70
2023/07/07 13:43:02;;;;;;;3.25;2.45;;;;;;;27.83;48.77;100258.66;6286301;28;20044;-70
2023/07/07 13:46:27;;;;;;;3.55;1.95;;;;;;;27.63;48.44;100261.28;6260721;28;20407;-71
2023/07/07 13:49:32;;;;;;;3.33;2.05;;;;;;;27.62;49.34;100254.28;6281388;28;20053;-70
2023/07/07 13:52:34;;;;;;;3.45;2.20;;;;;;;27.68;50.70;100249.97;6275174;28;20111;-70
2023/07/07 13:55:37;;;;;;;4.53;2.15;;;;;;;27.55;50.32;100258.81;6294697;28;20140;-71
2023/07/07 13:58:47;;;;;;;2.22;1.67;;;;;;;27.20;50.67;100250.78;6284953;28;20088;-70
2023/07/07 14:01:52;;;;;;;2.75;2.10;;;;;;;26.88;51.40;100252.22;6272470;28;20096;-71
2023/07/07 14:05:07;;;;;;;12.75;2.42;;;;;;;27.32;50.00;100251.91;6273322;28;20136;-70
2023/07/07 14:08:21;;;;;;;5.10;2.20;;;;;;;27.25;50.43;100256.38;6272437;28;20488;-70
2023/07/07 14:11:25;;;;;;;3.70;2.40;;;;;;;27.11;51.21;100251.94;6288236;28;20538;-70
2023/07/07 14:14:27;;;;;;;4.13;2.30;;;;;;;26.69;52.08;100256.41;6276084;28;20133;-70
2023/07/07 14:17:30;;;;;;;4.53;2.28;;;;;;;26.23;52.59;100267.47;6271075;28;20059;-70
2023/07/07 14:20:38;;;;;;;7.45;2.40;;;;;;;25.93;53.28;100276.44;6272136;28;20045;-72
2023/07/07 14:23:41;;;;;;;3.45;2.33;;;;;;;26.38;52.95;100262.91;6271186;28;20077;-71
2023/07/07 14:26:44;;;;;;;4.00;2.35;;;;;;;26.56;53.18;100259.75;6286224;28;20056;-70
2023/07/07 14:29:47;;;;;;;6.65;2.30;;;;;;;26.21;53.37;100265.00;6271389;28;20131;-70
2023/07/07 14:32:54;;;;;;;4.22;2.70;;;;;;;26.47;52.97;100275.09;6271784;28;20052;-70
2023/07/07 14:35:57;;;;;;;4.90;2.63;;;;;;;26.61;53.57;100273.41;6268401;28;20057;-71